sensor_id;sensor_type;location;lat;lon;timestamp;P1;durP1;ratioP1;P2;durP2;ratioP2
14096;SDS011;7125;48.106;11.544;2022-08-27T00:00:04;12.85;;;10.38;;
14096;SDS011;7125;48.106;11.544;2022-08-27T00:02:33;12.15;;;10.88;;
14096;SDS011;7125;48.106;11.544;2022-08-27T00:05:00;13.18;;;11.00;;
14096;SDS011;7125;48.106;11.544;2022-08-27T00:07:27;12.30;;;11.02;;
14096;SDS011;7125;48.106;11.544;2022-08-27T00:09:54;11.98;;;10.73;;
14096;SDS011;7125;48.106;11.544;2022-08-27T00:12:21;13.88;;;11.15;;
14096;SDS011;7125;48.106;11.544;2022-08-27T00:14:49;13.65;;;11.93;;
14096;SDS011;7125;48.106;11.544;2022-08-27T00:17:16;13.20;;;11.80;;
14096;SDS011;7125;48.106;11.544;2022-08-27T00:19:43;14.02;;;11.20;;
14096;SDS011;7125;48.106;11.544;2022-08-27T00:22:10;14.18;;;10.95;;
14096;SDS011;7125;48.106;11.544;2022-08-27T00:24:37;14.10;;;11.40;;
14096;SDS011;7125;48.106;11.544;2022-08-27T00:27:04;11.38;;;10.18;;
14096;SDS011;7125;48.106;11.544;2022-08-27T00:29:31;13.43;;;10.95;;
14096;SDS011;7125;48.106;11.544;2022-08-27T00:31:59;15.30;;;11.20;;
14096;SDS011;7125;48.106;11.544;2022-08-27T00:34:25;10.80;;;9.65;;
14096;SDS011;7125;48.106;11.544;2022-08-27T00:36:52;15.30;;;10.90;;
14096;SDS011;7125;48.106;11.544;2022-08-27T00:39:19;12.15;;;9.52;;
14096;SDS011;7125;48.106;11.544;2022-08-27T00:41:46;12.55;;;10.73;;
14096;SDS011;7125;48.106;11.544;2022-08-27T00:44:13;11.77;;;10.68;;
14096;SDS011;7125;48.106;11.544;2022-08-27T00:46:42;15.88;;;9.70;;
14096;SDS011;7125;48.106;11.544;2022-08-27T00:49:13;10.73;;;9.73;;
14096;SDS011;7125;48.106;11.544;2022-08-27T00:51:44;12.20;;;10.50;;
14096;SDS011;7125;48.106;11.544;2022-08-27T00:54:14;12.18;;;10.65;;
14096;SDS011;7125;48.106;11.544;2022-08-27T00:56:41;11.02;;;9.70;;
14096;SDS011;7125;48.106;11.544;2022-08-27T00:59:10;17.75;;;10.75;;
14096;SDS011;7125;48.106;11.544;2022-08-27T01:01:40;10.40;;;9.40;;
14096;SDS011;7125;48.106;11.544;2022-08-27T01:04:25;12.50;;;10.57;;
14096;SDS011;7125;48.106;11.544;2022-08-27T01:06:53;11.70;;;10.20;;
14096;SDS011;7125;48.106;11.544;2022-08-27T01:09:20;10.73;;;9.63;;
14096;SDS011;7125;48.106;11.544;2022-08-27T01:11:47;12.43;;;10.55;;
14096;SDS011;7125;48.106;11.544;2022-08-27T01:14:15;12.23;;;10.75;;
14096;SDS011;7125;48.106;11.544;2022-08-27T01:16:45;12.38;;;11.13;;
14096;SDS011;7125;48.106;11.544;2022-08-27T01:19:17;12.48;;;10.55;;
14096;SDS011;7125;48.106;11.544;2022-08-27T01:21:52;14.00;;;12.57;;
14096;SDS011;7125;48.106;11.544;2022-08-27T01:24:30;12.45;;;10.13;;
14096;SDS011;7125;48.106;11.544;2022-08-27T01:27:01;15.57;;;12.77;;
14096;SDS011;7125;48.106;11.544;2022-08-27T01:29:29;16.02;;;12.32;;
14096;SDS011;7125;48.106;11.544;2022-08-27T01:31:57;18.77;;;11.77;;
14096;SDS011;7125;48.106;11.544;2022-08-27T01:34:30;15.13;;;12.93;;
14096;SDS011;7125;48.106;11.544;2022-08-27T01:36:57;13.70;;;11.45;;
14096;SDS011;7125;48.106;11.544;2022-08-27T01:39:24;13.82;;;11.73;;
14096;SDS011;7125;48.106;11.544;2022-08-27T01:41:52;15.00;;;12.63;;
14096;SDS011;7125;48.106;11.544;2022-08-27T01:44:21;15.25;;;12.50;;
14096;SDS011;7125;48.106;11.544;2022-08-27T01:46:48;12.60;;;11.30;;
14096;SDS011;7125;48.106;11.544;2022-08-27T01:49:15;12.60;;;11.32;;
14096;SDS011;7125;48.106;11.544;2022-08-27T01:51:42;12.55;;;11.23;;
14096;SDS011;7125;48.106;11.544;2022-08-27T01:54:09;12.43;;;10.90;;
14096;SDS011;7125;48.106;11.544;2022-08-27T01:56:36;16.17;;;12.05;;
14096;SDS011;7125;48.106;11.544;2022-08-27T01:59:04;13.70;;;12.13;;
14096;SDS011;7125;48.106;11.544;2022-08-27T02:01:30;14.68;;;11.85;;
14096;SDS011;7125;48.106;11.544;2022-08-27T02:03:57;14.73;;;12.50;;
14096;SDS011;7125;48.106;11.544;2022-08-27T02:06:24;15.07;;;12.35;;
14096;SDS011;7125;48.106;11.544;2022-08-27T02:08:51;13.75;;;11.48;;
14096;SDS011;7125;48.106;11.544;2022-08-27T02:11:18;13.52;;;12.00;;
14096;SDS011;7125;48.106;11.544;2022-08-27T02:13:45;19.23;;;13.63;;
14096;SDS011;7125;48.106;11.544;2022-08-27T02:16:13;12.82;;;11.18;;
14096;SDS011;7125;48.106;11.544;2022-08-27T02:18:40;16.17;;;12.57;;
14096;SDS011;7125;48.106;11.544;2022-08-27T02:21:07;13.15;;;10.90;;
14096;SDS011;7125;48.106;11.544;2022-08-27T02:23:34;16.73;;;12.73;;
14096;SDS011;7125;48.106;11.544;2022-08-27T02:26:01;12.18;;;10.95;;
14096;SDS011;7125;48.106;11.544;2022-08-27T02:28:28;13.38;;;11.75;;
14096;SDS011;7125;48.106;11.544;2022-08-27T02:30:55;16.60;;;13.57;;
14096;SDS011;7125;48.106;11.544;2022-08-27T02:33:23;14.13;;;11.45;;
14096;SDS011;7125;48.106;11.544;2022-08-27T02:35:50;12.20;;;10.82;;
14096;SDS011;7125;48.106;11.544;2022-08-27T02:38:17;12.23;;;10.93;;
14096;SDS011;7125;48.106;11.544;2022-08-27T02:40:45;13.18;;;11.80;;
14096;SDS011;7125;48.106;11.544;2022-08-27T02:43:12;12.82;;;10.20;;
14096;SDS011;7125;48.106;11.544;2022-08-27T02:45:39;12.18;;;10.93;;
14096;SDS011;7125;48.106;11.544;2022-08-27T02:48:06;12.68;;;10.43;;
14096;SDS011;7125;48.106;11.544;2022-08-27T02:50:35;13.60;;;10.43;;
14096;SDS011;7125;48.106;11.544;2022-08-27T02:53:03;10.13;;;9.18;;
14096;SDS011;7125;48.106;11.544;2022-08-27T02:55:31;8.90;;;8.10;;
14096;SDS011;7125;48.106;11.544;2022-08-27T02:57:58;10.65;;;9.65;;
14096;SDS011;7125;48.106;11.544;2022-08-27T03:00:25;11.40;;;9.20;;
14096;SDS011;7125;48.106;11.544;2022-08-27T03:02:54;10.80;;;9.75;;
14096;SDS011;7125;48.106;11.544;2022-08-27T03:05:22;9.32;;;8.10;;
14096;SDS011;7125;48.106;11.544;2022-08-27T03:07:51;8.52;;;7.70;;
14096;SDS011;7125;48.106;11.544;2022-08-27T03:10:19;11.40;;;7.80;;
14096;SDS011;7125;48.106;11.544;2022-08-27T03:12:46;9.13;;;8.23;;
14096;SDS011;7125;48.106;11.544;2022-08-27T03:15:15;8.77;;;7.97;;
14096;SDS011;7125;48.106;11.544;2022-08-27T03:17:44;9.02;;;8.00;;
14096;SDS011;7125;48.106;11.544;2022-08-27T03:20:28;8.55;;;7.75;;
14096;SDS011;7125;48.106;11.544;2022-08-27T03:22:57;8.20;;;7.50;;
14096;SDS011;7125;48.106;11.544;2022-08-27T03:25:24;7.47;;;6.65;;
14096;SDS011;7125;48.106;11.544;2022-08-27T03:27:51;8.30;;;7.50;;
14096;SDS011;7125;48.106;11.544;2022-08-27T03:30:18;8.98;;;6.97;;
14096;SDS011;7125;48.106;11.544;2022-08-27T03:32:47;7.45;;;6.35;;
14096;SDS011;7125;48.106;11.544;2022-08-27T03:35:14;6.82;;;5.68;;
14096;SDS011;7125;48.106;11.544;2022-08-27T03:37:41;9.35;;;5.20;;
14096;SDS011;7125;48.106;11.544;2022-08-27T03:40:10;7.25;;;5.85;;
14096;SDS011;7125;48.106;11.544;2022-08-27T03:42:37;6.22;;;5.63;;
14096;SDS011;7125;48.106;11.544;2022-08-27T03:45:06;6.07;;;5.07;;
14096;SDS011;7125;48.106;11.544;2022-08-27T03:47:34;6.43;;;5.68;;
14096;SDS011;7125;48.106;11.544;2022-08-27T03:50:01;5.97;;;5.30;;
14096;SDS011;7125;48.106;11.544;2022-08-27T03:52:31;7.18;;;6.22;;
14096;SDS011;7125;48.106;11.544;2022-08-27T03:54:59;6.85;;;5.82;;
14096;SDS011;7125;48.106;11.544;2022-08-27T03:57:28;5.53;;;4.97;;
14096;SDS011;7125;48.106;11.544;2022-08-27T03:59:55;6.10;;;5.57;;
14096;SDS011;7125;48.106;11.544;2022-08-27T04:02:22;6.55;;;5.80;;
14096;SDS011;7125;48.106;11.544;2022-08-27T04:04:49;6.60;;;5.93;;
14096;SDS011;7125;48.106;11.544;2022-08-27T04:07:15;6.38;;;5.38;;
14096;SDS011;7125;48.106;11.544;2022-08-27T04:09:43;5.57;;;5.00;;
14096;SDS011;7125;48.106;11.544;2022-08-27T04:12:09;6.35;;;5.68;;
14096;SDS011;7125;48.106;11.544;2022-08-27T04:14:38;6.65;;;6.05;;
14096;SDS011;7125;48.106;11.544;2022-08-27T04:17:04;6.07;;;5.43;;
14096;SDS011;7125;48.106;11.544;2022-08-27T04:19:32;6.32;;;5.72;;
14096;SDS011;7125;48.106;11.544;2022-08-27T04:21:59;6.93;;;6.18;;
14096;SDS011;7125;48.106;11.544;2022-08-27T04:24:28;6.72;;;6.13;;
14096;SDS011;7125;48.106;11.544;2022-08-27T04:26:56;5.85;;;5.35;;
14096;SDS011;7125;48.106;11.544;2022-08-27T04:29:23;6.68;;;5.93;;
14096;SDS011;7125;48.106;11.544;2022-08-27T04:31:51;6.97;;;6.28;;
14096;SDS011;7125;48.106;11.544;2022-08-27T04:34:18;6.53;;;5.93;;
14096;SDS011;7125;48.106;11.544;2022-08-27T04:36:45;6.78;;;6.13;;
14096;SDS011;7125;48.106;11.544;2022-08-27T04:39:13;7.28;;;6.10;;
14096;SDS011;7125;48.106;11.544;2022-08-27T04:41:40;6.88;;;5.72;;
14096;SDS011;7125;48.106;11.544;2022-08-27T04:44:08;7.00;;;5.85;;
14096;SDS011;7125;48.106;11.544;2022-08-27T04:46:37;12.65;;;5.72;;
14096;SDS011;7125;48.106;11.544;2022-08-27T04:49:07;7.93;;;6.63;;
14096;SDS011;7125;48.106;11.544;2022-08-27T04:51:36;5.85;;;5.22;;
14096;SDS011;7125;48.106;11.544;2022-08-27T04:54:03;6.22;;;5.63;;
14096;SDS011;7125;48.106;11.544;2022-08-27T04:56:31;6.20;;;5.60;;
14096;SDS011;7125;48.106;11.544;2022-08-27T04:58:59;6.85;;;6.20;;
14096;SDS011;7125;48.106;11.544;2022-08-27T05:01:28;8.68;;;7.70;;
14096;SDS011;7125;48.106;11.544;2022-08-27T05:03:55;10.27;;;7.25;;
14096;SDS011;7125;48.106;11.544;2022-08-27T05:06:24;7.65;;;6.70;;
14096;SDS011;7125;48.106;11.544;2022-08-27T05:08:51;8.82;;;6.05;;
14096;SDS011;7125;48.106;11.544;2022-08-27T05:11:19;7.55;;;6.22;;
14096;SDS011;7125;48.106;11.544;2022-08-27T05:13:47;8.52;;;7.15;;
14096;SDS011;7125;48.106;11.544;2022-08-27T05:16:15;7.53;;;6.82;;
14096;SDS011;7125;48.106;11.544;2022-08-27T05:18:43;8.85;;;7.20;;
14096;SDS011;7125;48.106;11.544;2022-08-27T05:21:15;8.07;;;7.28;;
14096;SDS011;7125;48.106;11.544;2022-08-27T05:23:43;9.90;;;8.18;;
14096;SDS011;7125;48.106;11.544;2022-08-27T05:26:10;9.20;;;8.02;;
14096;SDS011;7125;48.106;11.544;2022-08-27T05:28:37;8.27;;;7.45;;
14096;SDS011;7125;48.106;11.544;2022-08-27T05:31:05;8.50;;;7.68;;
14096;SDS011;7125;48.106;11.544;2022-08-27T05:33:34;10.85;;;8.55;;
14096;SDS011;7125;48.106;11.544;2022-08-27T05:36:02;7.65;;;6.93;;
14096;SDS011;7125;48.106;11.544;2022-08-27T05:38:30;8.82;;;7.50;;
14096;SDS011;7125;48.106;11.544;2022-08-27T05:41:03;8.80;;;6.85;;
14096;SDS011;7125;48.106;11.544;2022-08-27T05:43:33;6.90;;;6.20;;
14096;SDS011;7125;48.106;11.544;2022-08-27T05:46:02;6.13;;;5.45;;
14096;SDS011;7125;48.106;11.544;2022-08-27T05:48:30;5.40;;;4.75;;
14096;SDS011;7125;48.106;11.544;2022-08-27T05:51:05;4.97;;;4.53;;
14096;SDS011;7125;48.106;11.544;2022-08-27T05:53:33;5.63;;;4.70;;
14096;SDS011;7125;48.106;11.544;2022-08-27T05:56:00;5.30;;;4.47;;
14096;SDS011;7125;48.106;11.544;2022-08-27T05:58:28;5.40;;;4.90;;
14096;SDS011;7125;48.106;11.544;2022-08-27T06:01:12;6.57;;;5.05;;
14096;SDS011;7125;48.106;11.544;2022-08-27T06:03:40;6.15;;;5.55;;
14096;SDS011;7125;48.106;11.544;2022-08-27T06:06:09;9.38;;;5.28;;
14096;SDS011;7125;48.106;11.544;2022-08-27T06:08:36;5.65;;;4.63;;
14096;SDS011;7125;48.106;11.544;2022-08-27T06:11:04;5.32;;;4.82;;
14096;SDS011;7125;48.106;11.544;2022-08-27T06:13:34;4.93;;;4.38;;
14096;SDS011;7125;48.106;11.544;2022-08-27T06:16:01;5.35;;;4.85;;
14096;SDS011;7125;48.106;11.544;2022-08-27T06:18:28;5.40;;;4.90;;
14096;SDS011;7125;48.106;11.544;2022-08-27T06:20:55;7.35;;;5.57;;
14096;SDS011;7125;48.106;11.544;2022-08-27T06:23:22;7.03;;;6.00;;
14096;SDS011;7125;48.106;11.544;2022-08-27T06:25:49;6.35;;;5.75;;
14096;SDS011;7125;48.106;11.544;2022-08-27T06:28:18;9.30;;;6.72;;
14096;SDS011;7125;48.106;11.544;2022-08-27T06:30:48;7.57;;;6.75;;
14096;SDS011;7125;48.106;11.544;2022-08-27T06:33:15;7.43;;;6.20;;
14096;SDS011;7125;48.106;11.544;2022-08-27T06:35:45;7.55;;;6.85;;
14096;SDS011;7125;48.106;11.544;2022-08-27T06:38:12;9.45;;;8.45;;
14096;SDS011;7125;48.106;11.544;2022-08-27T06:40:39;11.20;;;9.38;;
14096;SDS011;7125;48.106;11.544;2022-08-27T06:43:06;12.38;;;9.82;;
14096;SDS011;7125;48.106;11.544;2022-08-27T06:45:35;10.82;;;9.70;;
14096;SDS011;7125;48.106;11.544;2022-08-27T06:48:05;10.15;;;9.07;;
14096;SDS011;7125;48.106;11.544;2022-08-27T06:50:35;11.93;;;10.10;;
14096;SDS011;7125;48.106;11.544;2022-08-27T06:53:02;10.63;;;9.48;;
14096;SDS011;7125;48.106;11.544;2022-08-27T06:55:29;12.13;;;10.93;;
14096;SDS011;7125;48.106;11.544;2022-08-27T06:57:56;11.18;;;10.00;;
14096;SDS011;7125;48.106;11.544;2022-08-27T07:00:23;11.60;;;10.48;;
14096;SDS011;7125;48.106;11.544;2022-08-27T07:02:50;11.35;;;10.15;;
14096;SDS011;7125;48.106;11.544;2022-08-27T07:05:19;11.68;;;10.52;;
14096;SDS011;7125;48.106;11.544;2022-08-27T07:07:46;15.13;;;10.07;;
14096;SDS011;7125;48.106;11.544;2022-08-27T07:10:12;12.07;;;10.85;;
14096;SDS011;7125;48.106;11.544;2022-08-27T07:12:39;10.65;;;9.13;;
14096;SDS011;7125;48.106;11.544;2022-08-27T07:15:07;13.30;;;11.27;;
14096;SDS011;7125;48.106;11.544;2022-08-27T07:17:35;12.18;;;10.93;;
14096;SDS011;7125;48.106;11.544;2022-08-27T07:20:02;16.70;;;10.40;;
14096;SDS011;7125;48.106;11.544;2022-08-27T07:22:31;10.75;;;9.50;;
14096;SDS011;7125;48.106;11.544;2022-08-27T07:24:57;10.60;;;9.50;;
14096;SDS011;7125;48.106;11.544;2022-08-27T07:27:24;12.38;;;9.88;;
14096;SDS011;7125;48.106;11.544;2022-08-27T07:29:54;11.98;;;9.10;;
14096;SDS011;7125;48.106;11.544;2022-08-27T07:32:21;12.13;;;9.70;;
14096;SDS011;7125;48.106;11.544;2022-08-27T07:34:47;11.60;;;8.00;;
14096;SDS011;7125;48.106;11.544;2022-08-27T07:37:14;10.25;;;8.88;;
14096;SDS011;7125;48.106;11.544;2022-08-27T07:39:42;10.43;;;9.38;;
14096;SDS011;7125;48.106;11.544;2022-08-27T07:42:09;9.50;;;8.63;;
14096;SDS011;7125;48.106;11.544;2022-08-27T07:44:54;10.57;;;9.55;;
14096;SDS011;7125;48.106;11.544;2022-08-27T07:47:21;9.75;;;8.57;;
14096;SDS011;7125;48.106;11.544;2022-08-27T07:49:47;10.85;;;9.32;;
14096;SDS011;7125;48.106;11.544;2022-08-27T07:52:14;8.65;;;7.85;;
14096;SDS011;7125;48.106;11.544;2022-08-27T07:54:43;8.27;;;7.40;;
14096;SDS011;7125;48.106;11.544;2022-08-27T07:57:09;9.00;;;8.10;;
14096;SDS011;7125;48.106;11.544;2022-08-27T07:59:36;9.95;;;8.63;;
14096;SDS011;7125;48.106;11.544;2022-08-27T08:02:03;9.68;;;8.15;;
14096;SDS011;7125;48.106;11.544;2022-08-27T08:04:30;10.32;;;9.18;;
14096;SDS011;7125;48.106;11.544;2022-08-27T08:06:57;9.43;;;8.52;;
14096;SDS011;7125;48.106;11.544;2022-08-27T08:09:24;9.27;;;8.20;;
14096;SDS011;7125;48.106;11.544;2022-08-27T08:11:53;10.60;;;9.13;;
14096;SDS011;7125;48.106;11.544;2022-08-27T08:14:20;9.15;;;8.15;;
14096;SDS011;7125;48.106;11.544;2022-08-27T08:16:47;10.23;;;8.18;;
14096;SDS011;7125;48.106;11.544;2022-08-27T08:19:14;8.88;;;8.07;;
14096;SDS011;7125;48.106;11.544;2022-08-27T08:21:41;8.63;;;7.88;;
14096;SDS011;7125;48.106;11.544;2022-08-27T08:24:07;8.18;;;7.38;;
14096;SDS011;7125;48.106;11.544;2022-08-27T08:26:34;9.48;;;8.48;;
14096;SDS011;7125;48.106;11.544;2022-08-27T08:29:03;9.35;;;8.45;;
14096;SDS011;7125;48.106;11.544;2022-08-27T08:31:30;10.40;;;7.63;;
14096;SDS011;7125;48.106;11.544;2022-08-27T08:33:57;7.25;;;6.43;;
14096;SDS011;7125;48.106;11.544;2022-08-27T08:36:23;7.65;;;7.00;;
14096;SDS011;7125;48.106;11.544;2022-08-27T08:38:50;8.07;;;7.25;;
14096;SDS011;7125;48.106;11.544;2022-08-27T08:41:24;7.00;;;6.40;;
14096;SDS011;7125;48.106;11.544;2022-08-27T08:44:06;7.38;;;6.20;;
14096;SDS011;7125;48.106;11.544;2022-08-27T08:46:38;7.88;;;6.90;;
14096;SDS011;7125;48.106;11.544;2022-08-27T08:49:10;8.55;;;7.65;;
14096;SDS011;7125;48.106;11.544;2022-08-27T08:51:50;8.45;;;7.10;;
14096;SDS011;7125;48.106;11.544;2022-08-27T08:54:21;8.05;;;7.25;;
14096;SDS011;7125;48.106;11.544;2022-08-27T08:56:51;10.05;;;7.20;;
14096;SDS011;7125;48.106;11.544;2022-08-27T08:59:25;7.53;;;6.88;;
14096;SDS011;7125;48.106;11.544;2022-08-27T09:01:55;11.20;;;7.63;;
14096;SDS011;7125;48.106;11.544;2022-08-27T09:04:22;7.75;;;7.05;;
14096;SDS011;7125;48.106;11.544;2022-08-27T09:06:52;9.43;;;8.43;;
14096;SDS011;7125;48.106;11.544;2022-08-27T09:09:24;10.05;;;8.02;;
14096;SDS011;7125;48.106;11.544;2022-08-27T09:11:58;9.05;;;8.32;;
14096;SDS011;7125;48.106;11.544;2022-08-27T09:14:31;8.93;;;7.95;;
14096;SDS011;7125;48.106;11.544;2022-08-27T09:17:01;9.07;;;8.30;;
14096;SDS011;7125;48.106;11.544;2022-08-27T09:19:29;10.13;;;8.27;;
14096;SDS011;7125;48.106;11.544;2022-08-27T09:21:58;9.45;;;8.48;;
14096;SDS011;7125;48.106;11.544;2022-08-27T09:24:32;10.68;;;8.27;;
14096;SDS011;7125;48.106;11.544;2022-08-27T09:27:05;7.43;;;6.65;;
14096;SDS011;7125;48.106;11.544;2022-08-27T09:29:44;9.55;;;8.55;;
14096;SDS011;7125;48.106;11.544;2022-08-27T09:32:12;10.70;;;8.00;;
14096;SDS011;7125;48.106;11.544;2022-08-27T09:34:42;8.05;;;7.25;;
14096;SDS011;7125;48.106;11.544;2022-08-27T09:37:11;15.90;;;7.93;;
14096;SDS011;7125;48.106;11.544;2022-08-27T09:39:45;7.32;;;6.65;;
14096;SDS011;7125;48.106;11.544;2022-08-27T09:42:22;7.72;;;6.82;;
14096;SDS011;7125;48.106;11.544;2022-08-27T09:44:55;9.15;;;8.25;;
14096;SDS011;7125;48.106;11.544;2022-08-27T09:47:22;11.38;;;8.10;;
14096;SDS011;7125;48.106;11.544;2022-08-27T09:49:59;7.88;;;7.10;;
14096;SDS011;7125;48.106;11.544;2022-08-27T09:52:29;7.78;;;7.18;;
14096;SDS011;7125;48.106;11.544;2022-08-27T09:54:58;8.98;;;8.10;;
14096;SDS011;7125;48.106;11.544;2022-08-27T09:57:28;8.35;;;6.75;;
14096;SDS011;7125;48.106;11.544;2022-08-27T10:00:01;8.10;;;7.03;;
14096;SDS011;7125;48.106;11.544;2022-08-27T10:02:47;8.02;;;7.32;;
14096;SDS011;7125;48.106;11.544;2022-08-27T10:05:19;8.20;;;6.72;;
14096;SDS011;7125;48.106;11.544;2022-08-27T10:07:52;8.00;;;7.18;;
14096;SDS011;7125;48.106;11.544;2022-08-27T10:10:28;7.07;;;6.25;;
14096;SDS011;7125;48.106;11.544;2022-08-27T10:13:06;7.78;;;6.25;;
14096;SDS011;7125;48.106;11.544;2022-08-27T10:15:44;8.70;;;7.20;;
14096;SDS011;7125;48.106;11.544;2022-08-27T10:18:25;6.40;;;5.80;;
14096;SDS011;7125;48.106;11.544;2022-08-27T10:21:01;10.38;;;7.07;;
14096;SDS011;7125;48.106;11.544;2022-08-27T10:23:34;7.20;;;6.47;;
14096;SDS011;7125;48.106;11.544;2022-08-27T10:26:08;7.80;;;6.70;;
14096;SDS011;7125;48.106;11.544;2022-08-27T10:28:43;7.10;;;6.40;;
14096;SDS011;7125;48.106;11.544;2022-08-27T10:31:25;7.65;;;6.97;;
14096;SDS011;7125;48.106;11.544;2022-08-27T10:34:07;6.45;;;5.88;;
14096;SDS011;7125;48.106;11.544;2022-08-27T10:36:46;6.60;;;6.00;;
14096;SDS011;7125;48.106;11.544;2022-08-27T10:39:22;7.53;;;6.93;;
14096;SDS011;7125;48.106;11.544;2022-08-27T10:42:00;6.93;;;6.32;;
14096;SDS011;7125;48.106;11.544;2022-08-27T10:44:40;6.75;;;6.25;;
14096;SDS011;7125;48.106;11.544;2022-08-27T10:47:22;6.65;;;6.05;;
14096;SDS011;7125;48.106;11.544;2022-08-27T10:50:01;8.38;;;6.10;;
14096;SDS011;7125;48.106;11.544;2022-08-27T10:52:33;6.45;;;5.63;;
14096;SDS011;7125;48.106;11.544;2022-08-27T10:55:05;8.40;;;7.07;;
14096;SDS011;7125;48.106;11.544;2022-08-27T10:57:41;7.88;;;7.18;;
14096;SDS011;7125;48.106;11.544;2022-08-27T11:00:27;7.28;;;5.93;;
14096;SDS011;7125;48.106;11.544;2022-08-27T11:03:06;6.57;;;6.07;;
14096;SDS011;7125;48.106;11.544;2022-08-27T11:05:37;6.32;;;5.82;;
14096;SDS011;7125;48.106;11.544;2022-08-27T11:08:10;6.68;;;6.00;;
14096;SDS011;7125;48.106;11.544;2022-08-27T11:10:43;6.70;;;5.95;;
14096;SDS011;7125;48.106;11.544;2022-08-27T11:13:14;6.55;;;5.68;;
14096;SDS011;7125;48.106;11.544;2022-08-27T11:15:45;5.13;;;4.70;;
14096;SDS011;7125;48.106;11.544;2022-08-27T11:18:20;4.70;;;4.30;;
14096;SDS011;7125;48.106;11.544;2022-08-27T11:20:56;5.55;;;5.07;;
14096;SDS011;7125;48.106;11.544;2022-08-27T11:23:29;5.28;;;4.88;;
14096;SDS011;7125;48.106;11.544;2022-08-27T11:26:02;6.80;;;5.15;;
14096;SDS011;7125;48.106;11.544;2022-08-27T11:28:32;5.55;;;5.05;;
14096;SDS011;7125;48.106;11.544;2022-08-27T11:31:06;5.18;;;4.68;;
14096;SDS011;7125;48.106;11.544;2022-08-27T11:33:41;6.43;;;4.72;;
14096;SDS011;7125;48.106;11.544;2022-08-27T11:39:15;4.30;;;4.00;;
14096;SDS011;7125;48.106;11.544;2022-08-27T11:42:00;4.68;;;4.28;;
14096;SDS011;7125;48.106;11.544;2022-08-27T11:44:38;4.47;;;4.07;;
14096;SDS011;7125;48.106;11.544;2022-08-27T11:47:09;5.00;;;4.60;;
14096;SDS011;7125;48.106;11.544;2022-08-27T11:49:44;4.38;;;4.00;;
14096;SDS011;7125;48.106;11.544;2022-08-27T11:52:19;4.82;;;4.43;;
14096;SDS011;7125;48.106;11.544;2022-08-27T11:54:50;4.78;;;4.35;;
14096;SDS011;7125;48.106;11.544;2022-08-27T11:57:25;4.15;;;3.67;;
14096;SDS011;7125;48.106;11.544;2022-08-27T11:59:54;5.90;;;4.70;;
14096;SDS011;7125;48.106;11.544;2022-08-27T12:02:22;12.13;;;4.95;;
14096;SDS011;7125;48.106;11.544;2022-08-27T12:04:53;5.78;;;5.20;;
14096;SDS011;7125;48.106;11.544;2022-08-27T12:07:32;5.53;;;4.47;;
14096;SDS011;7125;48.106;11.544;2022-08-27T12:10:08;4.72;;;4.30;;
14096;SDS011;7125;48.106;11.544;2022-08-27T12:12:55;5.75;;;4.43;;
14096;SDS011;7125;48.106;11.544;2022-08-27T12:15:33;4.68;;;4.18;;
14096;SDS011;7125;48.106;11.544;2022-08-27T12:18:16;4.95;;;3.97;;
14096;SDS011;7125;48.106;11.544;2022-08-27T12:21:00;5.63;;;4.90;;
14096;SDS011;7125;48.106;11.544;2022-08-27T12:23:39;5.50;;;4.00;;
14096;SDS011;7125;48.106;11.544;2022-08-27T12:26:17;4.47;;;4.07;;
14096;SDS011;7125;48.106;11.544;2022-08-27T12:28:54;9.52;;;4.18;;
14096;SDS011;7125;48.106;11.544;2022-08-27T12:31:47;4.43;;;4.13;;
14096;SDS011;7125;48.106;11.544;2022-08-27T12:34:16;5.70;;;4.65;;
14096;SDS011;7125;48.106;11.544;2022-08-27T12:36:48;4.22;;;3.83;;
14096;SDS011;7125;48.106;11.544;2022-08-27T12:39:17;5.40;;;4.10;;
14096;SDS011;7125;48.106;11.544;2022-08-27T12:41:47;4.53;;;3.60;;
14096;SDS011;7125;48.106;11.544;2022-08-27T12:44:21;4.43;;;4.10;;
14096;SDS011;7125;48.106;11.544;2022-08-27T12:46:50;4.38;;;3.65;;
14096;SDS011;7125;48.106;11.544;2022-08-27T12:49:21;4.72;;;3.60;;
14096;SDS011;7125;48.106;11.544;2022-08-27T12:51:54;7.43;;;4.03;;
14096;SDS011;7125;48.106;11.544;2022-08-27T12:54:28;3.90;;;3.60;;
14096;SDS011;7125;48.106;11.544;2022-08-27T12:57:09;4.00;;;3.70;;
14096;SDS011;7125;48.106;11.544;2022-08-27T12:59:54;4.57;;;3.95;;
14096;SDS011;7125;48.106;11.544;2022-08-27T13:02:37;4.45;;;3.45;;
14096;SDS011;7125;48.106;11.544;2022-08-27T13:05:18;4.00;;;3.65;;
14096;SDS011;7125;48.106;11.544;2022-08-27T13:07:48;3.67;;;2.88;;
14096;SDS011;7125;48.106;11.544;2022-08-27T13:10:19;7.63;;;3.90;;
14096;SDS011;7125;48.106;11.544;2022-08-27T13:12:59;4.13;;;2.92;;
14096;SDS011;7125;48.106;11.544;2022-08-27T13:15:27;3.22;;;3.03;;
14096;SDS011;7125;48.106;11.544;2022-08-27T13:17:54;4.55;;;4.15;;
14096;SDS011;7125;48.106;11.544;2022-08-27T13:20:22;4.07;;;3.65;;
14096;SDS011;7125;48.106;11.544;2022-08-27T13:22:52;5.40;;;2.90;;
14096;SDS011;7125;48.106;11.544;2022-08-27T13:25:20;5.72;;;3.63;;
14096;SDS011;7125;48.106;11.544;2022-08-27T13:27:53;3.45;;;3.15;;
14096;SDS011;7125;48.106;11.544;2022-08-27T13:30:23;3.30;;;3.00;;
14096;SDS011;7125;48.106;11.544;2022-08-27T13:32:53;4.35;;;3.88;;
14096;SDS011;7125;48.106;11.544;2022-08-27T13:35:21;5.40;;;3.28;;
14096;SDS011;7125;48.106;11.544;2022-08-27T13:37:49;3.13;;;2.92;;
14096;SDS011;7125;48.106;11.544;2022-08-27T13:40:23;3.30;;;3.10;;
14096;SDS011;7125;48.106;11.544;2022-08-27T13:42:53;3.92;;;3.60;;
14096;SDS011;7125;48.106;11.544;2022-08-27T13:45:21;4.57;;;3.40;;
14096;SDS011;7125;48.106;11.544;2022-08-27T13:47:48;3.60;;;3.30;;
14096;SDS011;7125;48.106;11.544;2022-08-27T13:50:19;5.13;;;4.63;;
14096;SDS011;7125;48.106;11.544;2022-08-27T13:52:48;4.95;;;3.30;;
14096;SDS011;7125;48.106;11.544;2022-08-27T13:55:36;4.10;;;3.67;;
14096;SDS011;7125;48.106;11.544;2022-08-27T13:58:10;5.13;;;3.50;;
14096;SDS011;7125;48.106;11.544;2022-08-27T14:00:38;3.58;;;3.25;;
14096;SDS011;7125;48.106;11.544;2022-08-27T14:03:21;3.63;;;3.33;;
14096;SDS011;7125;48.106;11.544;2022-08-27T14:05:54;3.97;;;3.58;;
14096;SDS011;7125;48.106;11.544;2022-08-27T14:08:22;4.05;;;3.67;;
14096;SDS011;7125;48.106;11.544;2022-08-27T14:11:00;5.10;;;3.72;;
14096;SDS011;7125;48.106;11.544;2022-08-27T14:13:33;4.43;;;3.38;;
14096;SDS011;7125;48.106;11.544;2022-08-27T14:16:11;3.33;;;3.03;;
14096;SDS011;7125;48.106;11.544;2022-08-27T14:18:49;5.68;;;3.35;;
14096;SDS011;7125;48.106;11.544;2022-08-27T14:21:18;5.35;;;3.10;;
14096;SDS011;7125;48.106;11.544;2022-08-27T14:23:45;5.45;;;3.03;;
14096;SDS011;7125;48.106;11.544;2022-08-27T14:26:13;3.72;;;3.42;;
14096;SDS011;7125;48.106;11.544;2022-08-27T14:28:41;5.45;;;3.83;;
14096;SDS011;7125;48.106;11.544;2022-08-27T14:31:08;5.20;;;3.25;;
14096;SDS011;7125;48.106;11.544;2022-08-27T14:33:36;6.85;;;2.65;;
14096;SDS011;7125;48.106;11.544;2022-08-27T14:36:03;3.35;;;2.95;;
14096;SDS011;7125;48.106;11.544;2022-08-27T14:38:30;3.85;;;3.42;;
14096;SDS011;7125;48.106;11.544;2022-08-27T14:40:59;4.13;;;3.75;;
14096;SDS011;7125;48.106;11.544;2022-08-27T14:43:27;4.53;;;3.42;;
14096;SDS011;7125;48.106;11.544;2022-08-27T14:45:54;3.58;;;3.28;;
14096;SDS011;7125;48.106;11.544;2022-08-27T14:48:22;3.13;;;2.90;;
14096;SDS011;7125;48.106;11.544;2022-08-27T14:50:53;5.28;;;4.25;;
14096;SDS011;7125;48.106;11.544;2022-08-27T14:53:20;3.83;;;3.53;;
14096;SDS011;7125;48.106;11.544;2022-08-27T14:55:47;3.58;;;2.85;;
14096;SDS011;7125;48.106;11.544;2022-08-27T14:58:14;3.42;;;3.20;;
14096;SDS011;7125;48.106;11.544;2022-08-27T15:00:43;3.25;;;2.60;;